createdAt,value
2023-01-04T00:02:25.558Z,100.00
2023-01-04T00:07:31.806Z,100.00
2023-01-04T00:12:36.724Z,100.00
2023-01-04T00:17:39.685Z,100.00
2023-01-04T00:22:42.668Z,100.00
2023-01-04T00:27:45.778Z,100.00
2023-01-04T00:32:48.780Z,100.00
2023-01-04T00:37:52.321Z,100.00
2023-01-04T00:42:55.514Z,100.00
2023-01-04T00:47:58.526Z,100.00
2023-01-04T00:53:01.672Z,100.00
2023-01-04T00:58:05.152Z,100.00
2023-01-04T01:03:08.478Z,100.00
2023-01-04T01:08:26.737Z,100.00
2023-01-04T01:13:29.732Z,100.00
2023-01-04T01:18:37.652Z,100.00
2023-01-04T01:23:41.576Z,100.00
2023-01-04T01:28:45.008Z,100.00
2023-01-04T01:33:50.374Z,100.00
2023-01-04T01:38:54.625Z,100.00
2023-01-04T01:44:20.551Z,100.00
2023-01-04T01:49:37.453Z,100.00
2023-01-04T01:54:44.367Z,100.00
2023-01-04T01:59:50.569Z,100.00
2023-01-04T02:04:54.987Z,100.00
2023-01-04T02:09:58.947Z,100.00
2023-01-04T02:15:02.335Z,100.00
2023-01-04T02:20:30.629Z,100.00
2023-01-04T02:25:45.417Z,100.00
2023-01-04T02:31:22.521Z,100.00
2023-01-04T02:36:34.433Z,100.00
2023-01-04T02:41:48.091Z,100.00
2023-01-04T02:47:02.743Z,100.00
2023-01-04T02:52:05.777Z,100.00
2023-01-04T02:57:24.049Z,100.00
2023-01-04T03:03:07.619Z,100.00
2023-01-04T03:08:22.694Z,100.00
2023-01-04T03:13:45.999Z,100.00
2023-01-04T03:18:53.892Z,100.00
2023-01-04T03:24:18.827Z,100.00
2023-01-04T03:29:50.492Z,100.00
2023-01-04T03:35:13.391Z,100.00
2023-01-04T03:40:38.289Z,100.00
2023-01-04T03:46:16.191Z,100.00
2023-01-04T03:51:23.824Z,100.00
2023-01-04T03:56:29.709Z,100.00
2023-01-04T04:01:33.115Z,100.00
2023-01-04T04:06:55.086Z,100.00
2023-01-04T04:11:58.969Z,100.00
2023-01-04T04:17:02.372Z,100.00
2023-01-04T04:22:05.525Z,100.00
2023-01-04T04:27:08.625Z,100.00
2023-01-04T04:32:11.770Z,100.00
2023-01-04T04:37:15.521Z,100.00
2023-01-04T04:42:18.465Z,100.00
2023-01-04T04:47:21.787Z,100.00
2023-01-04T04:52:24.785Z,100.00
2023-01-04T04:57:27.792Z,100.00
2023-01-04T05:02:30.885Z,100.00
2023-01-04T05:07:34.008Z,100.00
2023-01-04T05:12:57.909Z,100.00
2023-01-04T05:18:01.629Z,100.00
2023-01-04T05:23:05.968Z,100.00
2023-01-04T05:28:09.794Z,100.00
2023-01-04T05:33:12.906Z,100.00
2023-01-04T05:38:16.829Z,100.00
2023-01-04T05:43:20.914Z,100.00
2023-01-04T05:48:25.290Z,100.00
2023-01-04T05:53:28.205Z,100.00
2023-01-04T05:58:31.421Z,100.00
2023-01-04T06:03:34.854Z,100.00
2023-01-04T06:08:38.055Z,100.00
2023-01-04T06:13:41.250Z,100.00
2023-01-04T06:18:44.185Z,100.00
2023-01-04T06:23:47.271Z,100.00
2023-01-04T06:28:50.274Z,100.00
2023-01-04T06:33:53.409Z,100.00
2023-01-04T06:39:00.687Z,100.00
2023-01-04T06:44:03.802Z,100.00
2023-01-04T06:49:07.292Z,100.00
2023-01-04T06:54:12.019Z,100.00
2023-01-04T06:59:15.070Z,100.00
2023-01-04T07:04:18.162Z,100.00
2023-01-04T07:09:21.286Z,100.00
2023-01-04T07:14:24.706Z,100.00
2023-01-04T07:19:27.815Z,100.00
2023-01-04T07:24:31.033Z,100.00
2023-01-04T07:29:34.041Z,100.00
2023-01-04T07:34:38.244Z,100.00
2023-01-04T07:39:41.695Z,100.00
2023-01-04T07:44:44.993Z,100.00
2023-01-04T07:49:50.156Z,100.00
2023-01-04T07:54:53.847Z,100.00
2023-01-04T07:59:56.789Z,100.00
2023-01-04T08:05:00.077Z,100.00
2023-01-04T08:10:03.509Z,100.00
2023-01-04T08:15:07.321Z,100.00
2023-01-04T08:20:11.048Z,100.00
2023-01-04T08:25:14.269Z,100.00
2023-01-04T08:30:17.516Z,100.00
2023-01-04T08:35:21.539Z,100.00
2023-01-04T08:40:24.513Z,100.00
2023-01-04T08:45:47.598Z,100.00
2023-01-04T08:50:50.700Z,100.00
2023-01-04T08:55:54.579Z,100.00
2023-01-04T09:01:02.541Z,100.00
2023-01-04T09:06:08.429Z,100.00
2023-01-04T09:11:17.385Z,100.00
2023-01-04T09:16:20.845Z,100.00
2023-01-04T09:21:24.001Z,100.00
2023-01-04T09:26:27.453Z,100.00
2023-01-04T09:31:30.527Z,100.00
2023-01-04T09:36:33.843Z,100.00
2023-01-04T09:41:43.309Z,100.00
2023-01-04T09:47:04.435Z,100.00
2023-01-04T09:52:10.810Z,100.00
2023-01-04T09:57:44.345Z,100.00
2023-01-04T10:02:54.683Z,100.00
2023-01-04T10:07:57.922Z,100.00
2023-01-04T10:13:23.051Z,100.00
2023-01-04T10:24:46.270Z,100.00
2023-01-04T10:30:24.814Z,100.00
2023-01-04T10:35:29.145Z,100.00
2023-01-04T10:40:38.012Z,100.00
2023-01-04T10:45:54.539Z,100.00
2023-01-04T10:51:09.864Z,100.00
2023-01-04T10:56:33.406Z,100.00
2023-01-04T11:02:02.273Z,100.00
2023-01-04T11:07:18.839Z,100.00
2023-01-04T11:12:23.791Z,100.00
2023-01-04T11:17:27.207Z,100.00
2023-01-04T11:22:30.292Z,100.00
2023-01-04T11:27:48.574Z,99.99
2023-01-04T11:33:00.908Z,99.95
2023-01-04T11:38:16.910Z,99.37
2023-01-04T11:43:21.024Z,99.32
2023-01-04T11:48:41.688Z,99.27
2023-01-04T11:53:44.772Z,98.78
2023-01-04T11:59:24.844Z,99.29
2023-01-04T12:04:29.054Z,99.61
2023-01-04T12:09:33.733Z,99.63
2023-01-04T12:14:37.904Z,99.55
2023-01-04T12:19:42.069Z,99.36
2023-01-04T12:24:46.620Z,99.47
2023-01-04T12:30:00.604Z,99.38
2023-01-04T12:35:03.714Z,99.20
2023-01-04T12:40:44.816Z,98.60
2023-01-04T12:46:08.140Z,98.25
2023-01-04T12:51:52.038Z,97.96
2023-01-04T12:57:18.416Z,97.70
2023-01-04T13:02:26.245Z,96.80
2023-01-04T13:07:33.017Z,95.70
2023-01-04T13:13:17.614Z,95.68
2023-01-04T13:18:41.411Z,94.61
2023-01-04T13:23:53.016Z,93.79
2023-01-04T13:29:08.635Z,94.05
2023-01-04T13:34:24.127Z,95.39
2023-01-04T13:39:28.639Z,96.18
2023-01-04T13:45:19.068Z,97.80
2023-01-04T13:50:34.987Z,99.67
2023-01-04T13:55:38.899Z,100.00
2023-01-04T14:00:50.113Z,100.00
2023-01-04T14:06:02.761Z,100.00
2023-01-04T14:11:49.505Z,100.00
2023-01-04T14:17:16.378Z,100.00
2023-01-04T14:22:45.471Z,100.00
2023-01-04T14:27:48.677Z,100.00
2023-01-04T14:33:00.848Z,100.00
2023-01-04T14:38:06.544Z,100.00
2023-01-04T14:43:35.895Z,100.00
2023-01-04T14:48:38.893Z,100.00
2023-01-04T14:53:42.412Z,100.00
2023-01-04T14:58:46.140Z,100.00
2023-01-04T15:03:49.379Z,100.00
2023-01-04T15:08:52.819Z,100.00
2023-01-04T15:13:55.769Z,100.00
2023-01-04T15:18:58.989Z,100.00
2023-01-04T15:24:02.185Z,100.00
2023-01-04T15:29:07.148Z,100.00
2023-01-04T15:34:10.740Z,100.00
2023-01-04T15:39:14.616Z,100.00
2023-01-04T15:44:17.809Z,100.00
2023-01-04T15:49:20.809Z,100.00
2023-01-04T15:54:30.366Z,100.00
2023-01-04T15:59:33.886Z,100.00
2023-01-04T16:04:38.321Z,100.00
2023-01-04T16:09:41.578Z,100.00
2023-01-04T16:14:44.651Z,100.00
2023-01-04T16:19:47.750Z,100.00
2023-01-04T16:30:14.776Z,100.00
2023-01-04T16:35:17.815Z,100.00
2023-01-04T16:40:21.307Z,100.00
2023-01-04T16:45:24.397Z,100.00
2023-01-04T16:50:27.513Z,100.00
2023-01-04T16:55:30.517Z,100.00
2023-01-04T17:00:33.677Z,100.00
2023-01-04T17:05:40.615Z,100.00
2023-01-04T17:10:43.727Z,100.00
2023-01-04T17:15:47.162Z,100.00
2023-01-04T17:21:31.548Z,100.00
2023-01-04T17:26:25.805Z,100.00
2023-01-04T17:31:35.164Z,100.00
2023-01-04T17:36:38.584Z,100.00
2023-01-04T17:41:42.331Z,100.00
2023-01-04T17:46:45.423Z,100.00
2023-01-04T17:51:48.740Z,100.00
2023-01-04T17:56:51.846Z,100.00
2023-01-04T18:01:54.962Z,100.00
2023-01-04T18:06:58.314Z,100.00
2023-01-04T18:12:01.293Z,100.00
2023-01-04T18:17:06.422Z,100.00
2023-01-04T18:22:09.700Z,100.00
2023-01-04T18:27:23.154Z,100.00
2023-01-04T18:32:28.252Z,100.00
2023-01-04T18:37:32.992Z,100.00
2023-01-04T18:42:36.102Z,100.00
2023-01-04T18:47:39.829Z,100.00
2023-01-04T18:52:43.761Z,100.00
2023-01-04T18:57:46.765Z,100.00
2023-01-04T19:02:49.943Z,100.00
2023-01-04T19:07:54.939Z,100.00
2023-01-04T19:12:58.036Z,100.00
2023-01-04T19:18:01.149Z,100.00
2023-01-04T19:23:04.261Z,100.00
2023-01-04T19:28:08.615Z,100.00
2023-01-04T19:33:12.204Z,100.00
2023-01-04T19:38:15.321Z,100.00
2023-01-04T19:43:18.327Z,100.00
2023-01-04T19:48:24.121Z,100.00
2023-01-04T19:53:27.210Z,100.00
2023-01-04T19:58:30.623Z,100.00
2023-01-04T20:03:34.331Z,100.00
2023-01-04T20:08:38.006Z,100.00
2023-01-04T20:13:41.077Z,100.00
2023-01-04T20:18:44.301Z,100.00
2023-01-04T20:23:47.501Z,100.00
2023-01-04T20:28:52.079Z,100.00
2023-01-04T20:33:57.529Z,100.00
2023-01-04T20:39:04.821Z,100.00
2023-01-04T20:44:09.149Z,100.00
2023-01-04T20:49:12.161Z,100.00
2023-01-04T20:54:15.985Z,100.00
2023-01-04T20:59:19.106Z,100.00
2023-01-04T21:04:22.303Z,100.00
2023-01-04T21:09:25.415Z,100.00
2023-01-04T21:14:31.593Z,100.00
2023-01-04T21:19:34.700Z,100.00
2023-01-04T21:24:37.807Z,100.00
2023-01-04T21:29:40.716Z,100.00
2023-01-04T21:34:43.721Z,100.00
2023-01-04T21:39:46.829Z,100.00
2023-01-04T21:44:49.941Z,100.00
2023-01-04T21:49:53.456Z,100.00
2023-01-04T21:54:56.561Z,100.00
2023-01-04T21:59:59.778Z,100.00
2023-01-04T22:05:02.888Z,100.00
2023-01-04T22:10:06.254Z,100.00
2023-01-04T22:15:10.631Z,100.00
2023-01-04T22:20:13.669Z,100.00
2023-01-04T22:25:16.755Z,100.00
2023-01-04T22:30:20.058Z,100.00
2023-01-04T22:35:23.172Z,100.00
2023-01-04T22:40:26.278Z,100.00
2023-01-04T22:45:29.386Z,100.00
2023-01-04T22:50:32.705Z,100.00
2023-01-04T22:56:09.255Z,100.00
2023-01-04T23:01:05.133Z,100.00
2023-01-04T23:06:11.221Z,100.00
2023-01-04T23:11:17.120Z,100.00
2023-01-04T23:16:24.812Z,100.00
2023-01-04T23:21:32.405Z,100.00
2023-01-04T23:26:35.327Z,100.00
2023-01-04T23:31:38.686Z,100.00
2023-01-04T23:36:42.626Z,100.00
2023-01-04T23:41:46.022Z,100.00
2023-01-04T23:52:08.368Z,100.00
2023-01-04T23:57:11.382Z,100.00
